Whitten, Iowa
Current Conditions -  °F | °C
As of 12:53 PM on Thursday 30 Oct 2014 (Local Time) from KMIW Reporting Station
Clear Clear  
Wind Chill: 14°   Ceiling: Unl
Heat Index: 14°   Visibility: 10mi
Dew Point:   Wind: 6mph
Humidity: 47%   Direction: NA
Pressure: 30.02"   Gusts: NA
Location:  42.26°N, 93.01°W
Report Text: KMIW 301753Z AUTO VRB05KT 10SM CLR 14/03 A3002 RMK AO2 SLP172 60000 T01390028 10139 20039 58004
Loading
Personal Weather Stations






























Interactive Weather Map
Tropical Storm Tracking
New forecast layout! Learn more

10-Day Weather Forecast

Advertisements
Track Severe Weather on mobile